Capitol Logistics 1866

Operating for CJT



KJFK
John F Kennedy International Airport
New York, New York
EGNX
East Midlands Airport
Derby,

Route Details

Aircraft Information
Group: Trans-Atlantic Ops
Types: A31F,B744,B763,MD11
Route Data
Demand: V
Distance: 2940nm
Duration: 6h 25m
Recm'd Route: MERIT HFD PUT J42 BOS Q75 COPLY Q475 SCOTS N899A NICSO 4800N/05000W 5000N/04000W 5100N/03000W 5200N/02000W MALOT GISTI RINUS BOFUM Q37 MALUD L15 AMPIT AMPIT1E
Origin Wx: KJFK 270514Z 16009KT 1/2SM R04R/P6000FT BR OVC003 17/17 A3007 RMK AO2 SFC VIS 1 1/2 T01720167
Dest. Wx: EGNX 270520Z 26011KT CAVOK 09/04 Q1023
Notes:

Financial History
Total Freight: 163,276lbs
Average Load: 81,638lbs/flt
Fuel Used: 158,532lbs
Avg. Fuel Used: 79,266lbs/flt
Fuel Expense: $46,836
Avg. Fuel Expense: $23,418
Avg. Fuel Cost: $0.29/lbs
Total Gross Income: $337,002
Pilot Pay: $378
Total Expenses: $42,259
Total Revenue: $245,341
Average Revenue: $168,500.83